sensor_id;sensor_type;location;lat;lon;timestamp;pressure;altitude;pressure_sealevel;temperature;humidity
35435;BME280;21556;55.782;37.528;2024-01-16T00:01:49;97306.53;;;1.55;100.00
35435;BME280;21556;55.782;37.528;2024-01-16T00:04:15;97311.53;;;1.43;100.00
35435;BME280;21556;55.782;37.528;2024-01-16T00:06:41;97295.97;;;1.40;100.00
35435;BME280;21556;55.782;37.528;2024-01-16T00:09:11;97292.09;;;1.71;100.00
35435;BME280;21556;55.782;37.528;2024-01-16T00:11:40;97294.75;;;1.77;100.00
35435;BME280;21556;55.782;37.528;2024-01-16T00:14:09;97303.41;;;1.81;100.00
35435;BME280;21556;55.782;37.528;2024-01-16T00:16:46;97297.19;;;1.65;100.00
35435;BME280;21556;55.782;37.528;2024-01-16T00:19:16;97293.75;;;1.66;100.00
35435;BME280;21556;55.782;37.528;2024-01-16T00:21:44;97285.88;;;1.57;100.00
35435;BME280;21556;55.782;37.528;2024-01-16T00:24:18;97305.84;;;1.70;100.00
35435;BME280;21556;55.782;37.528;2024-01-16T00:26:47;97300.00;;;1.82;100.00
35435;BME280;21556;55.782;37.528;2024-01-16T00:29:16;97298.38;;;1.90;100.00
35435;BME280;21556;55.782;37.528;2024-01-16T00:31:42;97294.50;;;1.57;100.00
35435;BME280;21556;55.782;37.528;2024-01-16T00:34:10;97289.47;;;1.68;100.00
35435;BME280;21556;55.782;37.528;2024-01-16T00:36:36;97295.41;;;1.61;100.00
35435;BME280;21556;55.782;37.528;2024-01-16T00:39:02;97301.44;;;1.61;100.00
35435;BME280;21556;55.782;37.528;2024-01-16T00:41:29;97300.88;;;1.84;100.00
35435;BME280;21556;55.782;37.528;2024-01-16T00:43:55;97303.88;;;1.52;100.00
35435;BME280;21556;55.782;37.528;2024-01-16T00:46:21;97299.44;;;1.40;100.00
35435;BME280;21556;55.782;37.528;2024-01-16T00:48:47;97302.53;;;1.79;100.00
35435;BME280;21556;55.782;37.528;2024-01-16T00:51:15;97296.28;;;1.61;100.00
35435;BME280;21556;55.782;37.528;2024-01-16T00:53:42;97298.41;;;1.93;100.00
35435;BME280;21556;55.782;37.528;2024-01-16T00:56:09;97280.09;;;1.78;100.00
35435;BME280;21556;55.782;37.528;2024-01-16T00:58:35;97288.81;;;1.84;100.00
35435;BME280;21556;55.782;37.528;2024-01-16T01:01:07;97293.16;;;1.87;100.00
35435;BME280;21556;55.782;37.528;2024-01-16T01:03:42;97287.09;;;1.85;100.00
35435;BME280;21556;55.782;37.528;2024-01-16T01:06:17;97289.13;;;1.43;100.00
35435;BME280;21556;55.782;37.528;2024-01-16T01:08:52;97289.38;;;1.62;100.00
35435;BME280;21556;55.782;37.528;2024-01-16T01:11:19;97281.47;;;1.50;100.00
35435;BME280;21556;55.782;37.528;2024-01-16T01:13:45;97281.41;;;1.45;100.00
35435;BME280;21556;55.782;37.528;2024-01-16T01:16:12;97287.31;;;1.38;100.00
35435;BME280;21556;55.782;37.528;2024-01-16T01:18:38;97280.97;;;1.14;100.00
35435;BME280;21556;55.782;37.528;2024-01-16T01:21:04;97279.38;;;1.23;100.00
35435;BME280;21556;55.782;37.528;2024-01-16T01:23:31;97278.81;;;0.86;100.00
35435;BME280;21556;55.782;37.528;2024-01-16T01:26:01;97277.25;;;0.95;100.00
35435;BME280;21556;55.782;37.528;2024-01-16T01:28:27;97272.53;;;1.25;100.00
35435;BME280;21556;55.782;37.528;2024-01-16T01:30:53;97267.41;;;1.29;100.00
35435;BME280;21556;55.782;37.528;2024-01-16T01:33:28;97274.56;;;1.47;100.00
35435;BME280;21556;55.782;37.528;2024-01-16T01:35:54;97282.66;;;1.12;100.00
35435;BME280;21556;55.782;37.528;2024-01-16T01:38:20;97272.00;;;1.50;100.00
35435;BME280;21556;55.782;37.528;2024-01-16T01:40:49;97271.09;;;1.47;100.00
35435;BME280;21556;55.782;37.528;2024-01-16T01:43:22;97267.63;;;1.44;100.00
35435;BME280;21556;55.782;37.528;2024-01-16T01:48:40;97279.09;;;1.66;100.00
35435;BME280;21556;55.782;37.528;2024-01-16T01:51:17;97273.72;;;1.50;100.00
35435;BME280;21556;55.782;37.528;2024-01-16T01:53:52;97279.63;;;1.41;100.00
35435;BME280;21556;55.782;37.528;2024-01-16T01:56:24;97269.75;;;1.76;100.00
35435;BME280;21556;55.782;37.528;2024-01-16T01:58:54;97267.22;;;1.81;100.00
35435;BME280;21556;55.782;37.528;2024-01-16T02:01:25;97279.88;;;1.59;100.00
35435;BME280;21556;55.782;37.528;2024-01-16T02:03:55;97264.97;;;1.38;100.00
35435;BME280;21556;55.782;37.528;2024-01-16T02:06:22;97284.34;;;1.71;100.00
35435;BME280;21556;55.782;37.528;2024-01-16T02:08:57;97276.28;;;1.48;100.00
35435;BME280;21556;55.782;37.528;2024-01-16T02:11:27;97273.44;;;1.28;100.00
35435;BME280;21556;55.782;37.528;2024-01-16T02:13:54;97273.03;;;1.63;100.00
35435;BME280;21556;55.782;37.528;2024-01-16T02:16:21;97272.25;;;1.70;100.00
35435;BME280;21556;55.782;37.528;2024-01-16T02:18:48;97274.41;;;1.35;100.00
35435;BME280;21556;55.782;37.528;2024-01-16T02:21:25;97273.53;;;1.37;100.00
35435;BME280;21556;55.782;37.528;2024-01-16T02:23:59;97279.63;;;1.39;100.00
35435;BME280;21556;55.782;37.528;2024-01-16T02:26:25;97263.53;;;1.62;100.00
35435;BME280;21556;55.782;37.528;2024-01-16T02:28:52;97279.91;;;1.61;100.00
35435;BME280;21556;55.782;37.528;2024-01-16T02:31:18;97274.75;;;1.62;100.00
35435;BME280;21556;55.782;37.528;2024-01-16T02:33:45;97283.97;;;1.45;100.00
35435;BME280;21556;55.782;37.528;2024-01-16T02:36:11;97273.16;;;1.74;100.00
35435;BME280;21556;55.782;37.528;2024-01-16T02:38:41;97270.16;;;1.41;100.00
35435;BME280;21556;55.782;37.528;2024-01-16T02:41:13;97269.75;;;1.76;100.00
35435;BME280;21556;55.782;37.528;2024-01-16T02:43:45;97280.47;;;1.40;100.00
35435;BME280;21556;55.782;37.528;2024-01-16T02:46:11;97271.88;;;1.41;100.00
35435;BME280;21556;55.782;37.528;2024-01-16T02:48:39;97268.66;;;1.57;100.00
35435;BME280;21556;55.782;37.528;2024-01-16T02:51:05;97279.03;;;1.60;100.00
35435;BME280;21556;55.782;37.528;2024-01-16T02:53:31;97291.63;;;1.37;100.00
35435;BME280;21556;55.782;37.528;2024-01-16T02:56:05;97283.84;;;1.34;100.00
35435;BME280;21556;55.782;37.528;2024-01-16T02:58:31;97298.88;;;1.61;100.00
35435;BME280;21556;55.782;37.528;2024-01-16T03:00:58;97278.56;;;1.27;100.00
35435;BME280;21556;55.782;37.528;2024-01-16T03:03:28;97282.16;;;1.35;100.00
35435;BME280;21556;55.782;37.528;2024-01-16T03:05:54;97286.56;;;1.45;100.00
35435;BME280;21556;55.782;37.528;2024-01-16T03:08:26;97288.13;;;1.34;100.00
35435;BME280;21556;55.782;37.528;2024-01-16T03:10:53;97300.13;;;1.30;100.00
35435;BME280;21556;55.782;37.528;2024-01-16T03:13:20;97297.28;;;1.10;100.00
35435;BME280;21556;55.782;37.528;2024-01-16T03:15:46;97297.53;;;1.27;100.00
35435;BME280;21556;55.782;37.528;2024-01-16T03:18:12;97288.72;;;1.16;100.00
35435;BME280;21556;55.782;37.528;2024-01-16T03:20:38;97294.75;;;1.15;100.00
35435;BME280;21556;55.782;37.528;2024-01-16T03:23:04;97289.91;;;1.38;100.00
35435;BME280;21556;55.782;37.528;2024-01-16T03:25:31;97293.13;;;1.22;100.00
35435;BME280;21556;55.782;37.528;2024-01-16T03:27:57;97297.53;;;1.29;100.00
35435;BME280;21556;55.782;37.528;2024-01-16T03:30:23;97293.31;;;0.79;100.00
35435;BME280;21556;55.782;37.528;2024-01-16T03:32:50;97294.03;;;1.25;100.00
35435;BME280;21556;55.782;37.528;2024-01-16T03:35:16;97289.13;;;1.43;100.00
35435;BME280;21556;55.782;37.528;2024-01-16T03:37:42;97292.47;;;1.36;100.00
35435;BME280;21556;55.782;37.528;2024-01-16T03:40:09;97294.22;;;1.37;100.00
35435;BME280;21556;55.782;37.528;2024-01-16T03:42:37;97282.94;;;1.31;100.00
35435;BME280;21556;55.782;37.528;2024-01-16T03:45:03;97284.56;;;1.26;100.00
35435;BME280;21556;55.782;37.528;2024-01-16T03:47:31;97293.31;;;1.34;100.00
35435;BME280;21556;55.782;37.528;2024-01-16T03:49:57;97267.78;;;1.57;100.00
35435;BME280;21556;55.782;37.528;2024-01-16T03:52:23;97290.88;;;1.43;100.00
35435;BME280;21556;55.782;37.528;2024-01-16T03:54:50;97278.91;;;1.50;100.00
35435;BME280;21556;55.782;37.528;2024-01-16T03:57:16;97290.88;;;1.43;100.00
35435;BME280;21556;55.782;37.528;2024-01-16T03:59:45;97284.56;;;1.26;100.00
35435;BME280;21556;55.782;37.528;2024-01-16T04:02:22;97283.94;;;1.40;100.00
35435;BME280;21556;55.782;37.528;2024-01-16T04:04:54;97295.41;;;1.02;100.00
35435;BME280;21556;55.782;37.528;2024-01-16T04:07:26;97286.72;;;1.54;100.00
35435;BME280;21556;55.782;37.528;2024-01-16T04:09:52;97311.22;;;1.23;100.00
35435;BME280;21556;55.782;37.528;2024-01-16T04:12:21;97294.97;;;1.30;100.00
35435;BME280;21556;55.782;37.528;2024-01-16T04:14:48;97282.09;;;1.32;100.00
35435;BME280;21556;55.782;37.528;2024-01-16T04:17:14;97281.38;;;1.43;100.00
35435;BME280;21556;55.782;37.528;2024-01-16T04:19:40;97281.41;;;1.45;100.00
35435;BME280;21556;55.782;37.528;2024-01-16T04:22:09;97287.91;;;1.81;100.00
35435;BME280;21556;55.782;37.528;2024-01-16T04:24:35;97297.78;;;1.46;100.00
35435;BME280;21556;55.782;37.528;2024-01-16T04:27:01;97285.41;;;1.23;100.00
35435;BME280;21556;55.782;37.528;2024-01-16T04:29:30;97294.22;;;1.36;100.00
35435;BME280;21556;55.782;37.528;2024-01-16T04:31:57;97287.47;;;1.47;100.00
35435;BME280;21556;55.782;37.528;2024-01-16T04:34:26;97294.44;;;1.53;100.00
35435;BME280;21556;55.782;37.528;2024-01-16T04:37:05;97303.03;;;1.52;100.00
35435;BME280;21556;55.782;37.528;2024-01-16T04:39:31;97297.78;;;1.46;100.00
35435;BME280;21556;55.782;37.528;2024-01-16T04:41:57;97305.56;;;1.46;100.00
35435;BME280;21556;55.782;37.528;2024-01-16T04:44:25;97293.66;;;0.99;100.00
35435;BME280;21556;55.782;37.528;2024-01-16T04:47:00;97312.03;;;1.17;100.00
35435;BME280;21556;55.782;37.528;2024-01-16T04:49:28;97337.00;;;1.18;100.00
35435;BME280;21556;55.782;37.528;2024-01-16T04:51:56;97328.44;;;1.23;100.00
35435;BME280;21556;55.782;37.528;2024-01-16T04:54:22;97319.38;;;0.93;100.00
35435;BME280;21556;55.782;37.528;2024-01-16T04:56:51;97325.63;;;1.06;100.00
35435;BME280;21556;55.782;37.528;2024-01-16T04:59:17;97315.41;;;1.13;100.00
35435;BME280;21556;55.782;37.528;2024-01-16T05:01:46;97313.91;;;1.28;100.00
35435;BME280;21556;55.782;37.528;2024-01-16T05:04:15;97318.69;;;1.62;100.00
35435;BME280;21556;55.782;37.528;2024-01-16T05:06:41;97318.56;;;1.53;100.00
35435;BME280;21556;55.782;37.528;2024-01-16T05:09:07;97317.41;;;1.31;100.00
35435;BME280;21556;55.782;37.528;2024-01-16T05:11:35;97323.38;;;1.29;100.00
35435;BME280;21556;55.782;37.528;2024-01-16T05:14:04;97330.50;;;1.45;100.00
35435;BME280;21556;55.782;37.528;2024-01-16T05:16:30;97327.84;;;1.39;100.00
35435;BME280;21556;55.782;37.528;2024-01-16T05:19:07;97322.31;;;1.75;100.00
35435;BME280;21556;55.782;37.528;2024-01-16T05:21:33;97321.88;;;1.43;100.00
35435;BME280;21556;55.782;37.528;2024-01-16T05:24:00;97334.41;;;1.17;100.00
35435;BME280;21556;55.782;37.528;2024-01-16T05:26:26;97318.63;;;1.59;100.00
35435;BME280;21556;55.782;37.528;2024-01-16T05:28:52;97310.06;;;1.60;100.00
35435;BME280;21556;55.782;37.528;2024-01-16T05:31:18;97316.75;;;1.46;100.00
35435;BME280;21556;55.782;37.528;2024-01-16T05:33:45;97326.88;;;1.34;100.00
35435;BME280;21556;55.782;37.528;2024-01-16T05:36:12;97317.34;;;1.30;100.00
35435;BME280;21556;55.782;37.528;2024-01-16T05:38:41;97318.97;;;1.23;100.00
35435;BME280;21556;55.782;37.528;2024-01-16T05:41:07;97312.41;;;1.43;100.00
35435;BME280;21556;55.782;37.528;2024-01-16T05:43:36;97314.88;;;1.37;100.00
35435;BME280;21556;55.782;37.528;2024-01-16T05:46:05;97312.88;;;1.18;100.00
35435;BME280;21556;55.782;37.528;2024-01-16T05:48:31;97318.25;;;1.32;100.00
35435;BME280;21556;55.782;37.528;2024-01-16T05:50:59;97308.91;;;1.40;100.00
35435;BME280;21556;55.782;37.528;2024-01-16T05:53:25;97313.09;;;1.32;100.00
35435;BME280;21556;55.782;37.528;2024-01-16T05:55:52;97306.72;;;1.67;100.00
35435;BME280;21556;55.782;37.528;2024-01-16T05:58:20;97307.22;;;1.42;100.00
35435;BME280;21556;55.782;37.528;2024-01-16T06:00:46;97306.84;;;1.17;100.00
35435;BME280;21556;55.782;37.528;2024-01-16T06:03:14;97330.34;;;1.34;100.00
35435;BME280;21556;55.782;37.528;2024-01-16T06:05:41;97308.09;;;0.88;100.00
35435;BME280;21556;55.782;37.528;2024-01-16T06:08:07;97308.81;;;0.79;100.00
35435;BME280;21556;55.782;37.528;2024-01-16T06:10:34;97316.91;;;1.01;100.00
35435;BME280;21556;55.782;37.528;2024-01-16T06:13:00;97324.19;;;1.25;100.00
35435;BME280;21556;55.782;37.528;2024-01-16T06:15:26;97328.38;;;1.18;100.00
35435;BME280;21556;55.782;37.528;2024-01-16T06:18:19;97347.47;;;1.28;100.00
35435;BME280;21556;55.782;37.528;2024-01-16T06:20:46;97348.41;;;1.34;100.00
35435;BME280;21556;55.782;37.528;2024-01-16T06:23:12;97341.31;;;1.19;100.00
35435;BME280;21556;55.782;37.528;2024-01-16T06:25:40;97346.44;;;1.16;100.00
35435;BME280;21556;55.782;37.528;2024-01-16T06:28:06;97358.66;;;0.75;100.00
35435;BME280;21556;55.782;37.528;2024-01-16T06:30:33;97356.59;;;0.57;100.00
35435;BME280;21556;55.782;37.528;2024-01-16T06:33:02;97337.63;;;0.54;100.00
35435;BME280;21556;55.782;37.528;2024-01-16T06:35:34;97338.19;;;0.86;100.00
35435;BME280;21556;55.782;37.528;2024-01-16T06:38:20;97336.22;;;1.24;100.00
35435;BME280;21556;55.782;37.528;2024-01-16T06:40:46;97327.41;;;1.11;100.00
35435;BME280;21556;55.782;37.528;2024-01-16T06:43:15;97342.97;;;0.64;100.00
35435;BME280;21556;55.782;37.528;2024-01-16T06:46:00;97361.28;;;0.80;100.00
35435;BME280;21556;55.782;37.528;2024-01-16T06:48:26;97357.97;;;0.85;100.00
35435;BME280;21556;55.782;37.528;2024-01-16T06:50:56;97352.91;;;0.91;100.00
35435;BME280;21556;55.782;37.528;2024-01-16T06:53:22;97348.84;;;1.06;100.00
35435;BME280;21556;55.782;37.528;2024-01-16T06:55:57;97354.72;;;0.97;100.00
35435;BME280;21556;55.782;37.528;2024-01-16T06:58:29;97345.72;;;1.27;100.00
35435;BME280;21556;55.782;37.528;2024-01-16T07:00:55;97344.31;;;1.47;100.00
35435;BME280;21556;55.782;37.528;2024-01-16T07:03:22;97333.06;;;1.42;100.00
35435;BME280;21556;55.782;37.528;2024-01-16T07:06:02;97328.91;;;1.55;100.00
35435;BME280;21556;55.782;37.528;2024-01-16T07:08:31;97347.66;;;1.40;100.00
35435;BME280;21556;55.782;37.528;2024-01-16T07:10:57;97369.69;;;1.18;100.00
35435;BME280;21556;55.782;37.528;2024-01-16T07:13:24;97358.97;;;0.93;100.00
35435;BME280;21556;55.782;37.528;2024-01-16T07:18:40;97363.72;;;1.20;100.00
35435;BME280;21556;55.782;37.528;2024-01-16T07:21:18;97359.94;;;1.02;100.00
35435;BME280;21556;55.782;37.528;2024-01-16T07:23:45;97363.44;;;1.05;100.00
35435;BME280;21556;55.782;37.528;2024-01-16T07:26:11;97351.63;;;1.16;100.00
35435;BME280;21556;55.782;37.528;2024-01-16T07:28:37;97359.09;;;1.01;100.00
35435;BME280;21556;55.782;37.528;2024-01-16T07:31:04;97352.81;;;1.40;100.00
35435;BME280;21556;55.782;37.528;2024-01-16T07:33:31;97352.91;;;1.46;100.00
35435;BME280;21556;55.782;37.528;2024-01-16T07:35:57;97351.50;;;1.10;100.00
35435;BME280;21556;55.782;37.528;2024-01-16T07:38:23;97362.13;;;1.30;100.00
35435;BME280;21556;55.782;37.528;2024-01-16T07:40:49;97359.88;;;0.95;100.00
35435;BME280;21556;55.782;37.528;2024-01-16T07:43:16;97361.94;;;1.16;100.00
35435;BME280;21556;55.782;37.528;2024-01-16T07:45:42;97356.16;;;1.34;100.00
35435;BME280;21556;55.782;37.528;2024-01-16T07:48:17;97351.50;;;1.10;100.00
35435;BME280;21556;55.782;37.528;2024-01-16T07:53:46;97347.88;;;1.01;100.00
35435;BME280;21556;55.782;37.528;2024-01-16T07:56:17;97338.72;;;1.19;100.00
35435;BME280;21556;55.782;37.528;2024-01-16T07:58:43;97330.53;;;1.47;100.00
35435;BME280;21556;55.782;37.528;2024-01-16T08:01:09;97335.38;;;1.27;100.00
35435;BME280;21556;55.782;37.528;2024-01-16T08:03:36;97326.88;;;1.34;100.00
35435;BME280;21556;55.782;37.528;2024-01-16T08:06:02;97328.59;;;1.33;100.00
35435;BME280;21556;55.782;37.528;2024-01-16T08:08:31;97337.63;;;1.04;100.00
35435;BME280;21556;55.782;37.528;2024-01-16T08:11:00;97341.66;;;0.88;100.00
35435;BME280;21556;55.782;37.528;2024-01-16T08:13:26;97350.25;;;0.87;100.00
35435;BME280;21556;55.782;37.528;2024-01-16T08:15:54;97334.91;;;0.94;100.00
35435;BME280;21556;55.782;37.528;2024-01-16T08:18:23;97332.19;;;1.43;100.00
35435;BME280;21556;55.782;37.528;2024-01-16T08:21:07;97319.63;;;1.67;100.00
35435;BME280;21556;55.782;37.528;2024-01-16T08:23:36;97316.97;;;1.61;100.00
35435;BME280;21556;55.782;37.528;2024-01-16T08:26:08;97314.31;;;1.57;100.00
35435;BME280;21556;55.782;37.528;2024-01-16T08:28:40;97316.97;;;1.04;100.00
35435;BME280;21556;55.782;37.528;2024-01-16T08:31:06;97306.75;;;1.72;100.00
35435;BME280;21556;55.782;37.528;2024-01-16T08:33:33;97328.91;;;1.55;100.00
35435;BME280;21556;55.782;37.528;2024-01-16T08:36:00;97314.75;;;1.28;100.00
35435;BME280;21556;55.782;37.528;2024-01-16T08:38:29;97318.88;;;1.75;100.00
35435;BME280;21556;55.782;37.528;2024-01-16T08:40:58;97318.88;;;1.78;100.00
35435;BME280;21556;55.782;37.528;2024-01-16T08:43:29;97312.34;;;1.39;100.00
35435;BME280;21556;55.782;37.528;2024-01-16T08:45:56;97307.28;;;1.48;100.00
35435;BME280;21556;55.782;37.528;2024-01-16T08:48:24;97300.91;;;1.85;100.00
35435;BME280;21556;55.782;37.528;2024-01-16T08:50:52;97310.81;;;1.55;100.00
35435;BME280;21556;55.782;37.528;2024-01-16T08:53:19;97304.13;;;1.67;100.00
35435;BME280;21556;55.782;37.528;2024-01-16T08:55:48;97304.06;;;1.05;100.00
35435;BME280;21556;55.782;37.528;2024-01-16T08:58:20;97305.13;;;1.79;100.00
35435;BME280;21556;55.782;37.528;2024-01-16T09:00:46;97303.72;;;2.04;100.00
35435;BME280;21556;55.782;37.528;2024-01-16T09:03:13;97313.16;;;2.00;100.00
35435;BME280;21556;55.782;37.528;2024-01-16T09:05:39;97311.94;;;1.72;100.00
35435;BME280;21556;55.782;37.528;2024-01-16T09:08:05;97300.28;;;2.06;100.00
35435;BME280;21556;55.782;37.528;2024-01-16T09:10:35;97302.44;;;1.71;100.00
35435;BME280;21556;55.782;37.528;2024-01-16T09:13:02;97292.56;;;2.08;100.00
35435;BME280;21556;55.782;37.528;2024-01-16T09:15:28;97287.13;;;1.86;100.00
35435;BME280;21556;55.782;37.528;2024-01-16T09:17:54;97292.34;;;1.91;100.00
35435;BME280;21556;55.782;37.528;2024-01-16T09:20:20;97287.72;;;1.65;100.00
35435;BME280;21556;55.782;37.528;2024-01-16T09:22:46;97280.91;;;1.72;100.00
35435;BME280;21556;55.782;37.528;2024-01-16T09:25:15;97280.84;;;1.67;100.00
35435;BME280;21556;55.782;37.528;2024-01-16T09:27:44;97291.78;;;1.47;100.00
35435;BME280;21556;55.782;37.528;2024-01-16T09:30:11;97280.22;;;1.88;100.00
35435;BME280;21556;55.782;37.528;2024-01-16T09:32:38;97286.03;;;1.67;100.00
35435;BME280;21556;55.782;37.528;2024-01-16T09:35:05;97282.81;;;1.88;100.00
35435;BME280;21556;55.782;37.528;2024-01-16T09:37:35;97286.22;;;1.84;100.00
35435;BME280;21556;55.782;37.528;2024-01-16T09:40:01;97284.91;;;1.49;100.00
35435;BME280;21556;55.782;37.528;2024-01-16T09:42:29;97283.41;;;1.64;100.00
35435;BME280;21556;55.782;37.528;2024-01-16T09:45:19;97286.69;;;2.23;100.00
35435;BME280;21556;55.782;37.528;2024-01-16T09:48:10;97307.16;;;2.04;100.00
35435;BME280;21556;55.782;37.528;2024-01-16T09:50:40;97297.69;;;2.05;100.00
35435;BME280;21556;55.782;37.528;2024-01-16T09:53:09;97290.91;;;2.17;100.00
35435;BME280;21556;55.782;37.528;2024-01-16T09:55:39;97291.69;;;2.07;100.00
35435;BME280;21556;55.782;37.528;2024-01-16T09:58:12;97286.44;;;2.03;100.00
35435;BME280;21556;55.782;37.528;2024-01-16T10:00:46;97288.06;;;1.95;100.00
35435;BME280;21556;55.782;37.528;2024-01-16T10:03:14;97284.34;;;1.73;100.00
35435;BME280;21556;55.782;37.528;2024-01-16T10:08:49;97274.28;;;1.92;100.00
35435;BME280;21556;55.782;37.528;2024-01-16T10:11:21;97277.50;;;1.12;100.00
35435;BME280;21556;55.782;37.528;2024-01-16T10:13:47;97268.66;;;1.57;100.00
35435;BME280;21556;55.782;37.528;2024-01-16T10:16:15;97268.84;;;1.71;100.00
35435;BME280;21556;55.782;37.528;2024-01-16T10:18:44;97258.63;;;1.82;100.00
35435;BME280;21556;55.782;37.528;2024-01-16T10:21:37;97247.03;;;1.52;100.00
35435;BME280;21556;55.782;37.528;2024-01-16T10:24:12;97258.59;;;1.80;100.00
35435;BME280;21556;55.782;37.528;2024-01-16T10:26:39;97247.31;;;1.74;100.00
35435;BME280;21556;55.782;37.528;2024-01-16T10:29:08;97249.56;;;1.46;100.00
35435;BME280;21556;55.782;37.528;2024-01-16T10:31:35;97246.25;;;1.58;100.00
35435;BME280;21556;55.782;37.528;2024-01-16T10:34:24;97253.78;;;2.14;100.00
35435;BME280;21556;55.782;37.528;2024-01-16T10:37:14;97245.97;;;2.05;100.00
35435;BME280;21556;55.782;37.528;2024-01-16T10:39:50;97241.91;;;1.55;100.00
35435;BME280;21556;55.782;37.528;2024-01-16T10:42:16;97248.28;;;1.83;100.00
35435;BME280;21556;55.782;37.528;2024-01-16T10:44:55;97242.91;;;1.65;100.00
35435;BME280;21556;55.782;37.528;2024-01-16T10:47:24;97243.13;;;1.85;100.00
35435;BME280;21556;55.782;37.528;2024-01-16T10:49:50;97233.09;;;2.11;100.00
35435;BME280;21556;55.782;37.528;2024-01-16T10:52:18;97237.41;;;2.13;100.00
35435;BME280;21556;55.782;37.528;2024-01-16T10:54:50;97233.34;;;1.56;100.00
35435;BME280;21556;55.782;37.528;2024-01-16T10:57:20;97225.22;;;2.02;100.00
35435;BME280;21556;55.782;37.528;2024-01-16T10:59:53;97232.69;;;1.76;100.00
35435;BME280;21556;55.782;37.528;2024-01-16T11:02:31;97223.34;;;1.88;100.00
35435;BME280;21556;55.782;37.528;2024-01-16T11:05:04;97225.06;;;1.86;100.00
35435;BME280;21556;55.782;37.528;2024-01-16T11:07:37;97211.44;;;2.01;100.00
35435;BME280;21556;55.782;37.528;2024-01-16T11:10:08;97214.84;;;1.97;100.00
35435;BME280;21556;55.782;37.528;2024-01-16T11:12:40;97215.50;;;1.81;100.00
35435;BME280;21556;55.782;37.528;2024-01-16T11:15:10;97212.66;;;1.58;100.00
35435;BME280;21556;55.782;37.528;2024-01-16T11:17:46;97214.59;;;1.77;100.00
35435;BME280;21556;55.782;37.528;2024-01-16T11:20:24;97219.84;;;1.82;100.00
35435;BME280;21556;55.782;37.528;2024-01-16T11:22:56;97220.47;;;1.62;100.00
35435;BME280;21556;55.782;37.528;2024-01-16T11:25:34;97218.19;;;1.88;100.00
35435;BME280;21556;55.782;37.528;2024-01-16T11:28:10;97213.38;;;1.46;100.00
35435;BME280;21556;55.782;37.528;2024-01-16T11:30:42;97206.59;;;1.53;100.00
35435;BME280;21556;55.782;37.528;2024-01-16T11:36:00;97209.34;;;1.69;100.00
35435;BME280;21556;55.782;37.528;2024-01-16T11:38:29;97206.88;;;1.79;100.00
35435;BME280;21556;55.782;37.528;2024-01-16T11:41:00;97204.09;;;1.62;100.00
35435;BME280;21556;55.782;37.528;2024-01-16T11:43:36;97191.16;;;1.60;100.00
35435;BME280;21556;55.782;37.528;2024-01-16T11:46:06;97189.00;;;1.99;100.00
35435;BME280;21556;55.782;37.528;2024-01-16T11:48:36;97190.63;;;1.90;100.00
35435;BME280;21556;55.782;37.528;2024-01-16T11:51:23;97179.66;;;2.11;100.00
35435;BME280;21556;55.782;37.528;2024-01-16T11:53:50;97183.50;;;1.68;100.00
35435;BME280;21556;55.782;37.528;2024-01-16T12:02:00;97177.72;;;1.92;100.00
35435;BME280;21556;55.782;37.528;2024-01-16T12:04:34;97177.44;;;1.66;100.00
35435;BME280;21556;55.782;37.528;2024-01-16T12:07:00;97175.09;;;1.86;100.00
35435;BME280;21556;55.782;37.528;2024-01-16T12:09:28;97180.31;;;1.93;100.00
35435;BME280;21556;55.782;37.528;2024-01-16T12:11:57;97178.44;;;1.80;100.00
35435;BME280;21556;55.782;37.528;2024-01-16T12:14:32;97163.53;;;1.53;100.00
35435;BME280;21556;55.782;37.528;2024-01-16T12:17:16;97167.22;;;1.77;100.00
35435;BME280;21556;55.782;37.528;2024-01-16T12:19:44;97173.00;;;1.53;100.00
35435;BME280;21556;55.782;37.528;2024-01-16T12:22:22;97164.66;;;1.81;100.00
35435;BME280;21556;55.782;37.528;2024-01-16T12:24:49;97169.84;;;1.80;100.00
35435;BME280;21556;55.782;37.528;2024-01-16T12:27:20;97169.69;;;1.64;100.00
35435;BME280;21556;55.782;37.528;2024-01-16T12:30:13;97162.19;;;1.89;100.00
35435;BME280;21556;55.782;37.528;2024-01-16T12:32:42;97167.25;;;1.81;100.00
35435;BME280;21556;55.782;37.528;2024-01-16T12:35:08;97168.16;;;1.83;100.00
35435;BME280;21556;55.782;37.528;2024-01-16T12:37:34;97173.16;;;1.68;100.00
35435;BME280;21556;55.782;37.528;2024-01-16T12:40:06;97192.53;;;1.31;100.00
35435;BME280;21556;55.782;37.528;2024-01-16T12:42:35;97178.03;;;1.43;100.00
35435;BME280;21556;55.782;37.528;2024-01-16T12:45:08;97186.47;;;1.27;100.00
35435;BME280;21556;55.782;37.528;2024-01-16T12:47:35;97188.09;;;1.20;100.00
35435;BME280;21556;55.782;37.528;2024-01-16T12:50:04;97171.97;;;1.40;100.00
35435;BME280;21556;55.782;37.528;2024-01-16T12:52:31;97172.69;;;1.30;100.00
35435;BME280;21556;55.782;37.528;2024-01-16T12:55:00;97167.66;;;1.40;100.00
35435;BME280;21556;55.782;37.528;2024-01-16T12:57:30;97162.03;;;1.75;100.00
35435;BME280;21556;55.782;37.528;2024-01-16T12:59:57;97153.34;;;1.68;100.00
35435;BME280;21556;55.782;37.528;2024-01-16T13:02:26;97150.44;;;1.41;100.00
35435;BME280;21556;55.782;37.528;2024-01-16T13:05:00;97162.44;;;1.37;100.00
35435;BME280;21556;55.782;37.528;2024-01-16T13:07:33;97152.19;;;1.42;100.00
35435;BME280;21556;55.782;37.528;2024-01-16T13:10:10;97162.03;;;1.04;100.00
35435;BME280;21556;55.782;37.528;2024-01-16T13:12:44;97148.81;;;1.48;100.00
35435;BME280;21556;55.782;37.528;2024-01-16T13:15:10;97156.38;;;1.34;100.00
35435;BME280;21556;55.782;37.528;2024-01-16T13:17:42;97144.50;;;1.48;100.00
35435;BME280;21556;55.782;37.528;2024-01-16T13:20:11;97146.34;;;1.58;100.00
35435;BME280;21556;55.782;37.528;2024-01-16T13:22:42;97140.41;;;1.68;100.00